sensor_id;sensor_type;location;lat;lon;timestamp;P1;durP1;ratioP1;P2;durP2;ratioP2
18695;SDS011;22617;43.690;27.956;2023-10-13T00:05:01;4.13;;;1.60;;
18695;SDS011;22617;43.690;27.956;2023-10-13T00:10:10;3.20;;;1.40;;
18695;SDS011;22617;43.690;27.956;2023-10-13T00:15:14;2.23;;;1.27;;
18695;SDS011;22617;43.690;27.956;2023-10-13T00:20:21;2.80;;;1.43;;
18695;SDS011;22617;43.690;27.956;2023-10-13T00:25:39;3.40;;;1.40;;
18695;SDS011;22617;43.690;27.956;2023-10-13T00:30:52;5.87;;;1.73;;
18695;SDS011;22617;43.690;27.956;2023-10-13T00:36:03;3.00;;;1.53;;
18695;SDS011;22617;43.690;27.956;2023-10-13T00:41:11;4.37;;;1.70;;
18695;SDS011;22617;43.690;27.956;2023-10-13T00:46:18;4.17;;;1.40;;
18695;SDS011;22617;43.690;27.956;2023-10-13T00:51:24;4.00;;;1.80;;
18695;SDS011;22617;43.690;27.956;2023-10-13T00:56:40;6.37;;;1.50;;
18695;SDS011;22617;43.690;27.956;2023-10-13T01:01:49;4.20;;;2.07;;
18695;SDS011;22617;43.690;27.956;2023-10-13T01:06:57;3.77;;;1.60;;
18695;SDS011;22617;43.690;27.956;2023-10-13T01:12:03;4.17;;;1.40;;
18695;SDS011;22617;43.690;27.956;2023-10-13T01:17:11;7.23;;;1.70;;
18695;SDS011;22617;43.690;27.956;2023-10-13T01:22:16;4.63;;;1.60;;
18695;SDS011;22617;43.690;27.956;2023-10-13T01:27:24;5.80;;;1.47;;
18695;SDS011;22617;43.690;27.956;2023-10-13T01:32:29;2.03;;;1.30;;
18695;SDS011;22617;43.690;27.956;2023-10-13T01:37:34;6.87;;;1.83;;
18695;SDS011;22617;43.690;27.956;2023-10-13T01:42:40;4.50;;;1.67;;
18695;SDS011;22617;43.690;27.956;2023-10-13T01:47:44;5.67;;;1.57;;
18695;SDS011;22617;43.690;27.956;2023-10-13T01:52:49;5.97;;;1.90;;
18695;SDS011;22617;43.690;27.956;2023-10-13T01:58:05;4.93;;;1.60;;
18695;SDS011;22617;43.690;27.956;2023-10-13T02:03:17;4.53;;;2.17;;
18695;SDS011;22617;43.690;27.956;2023-10-13T02:08:24;3.03;;;1.80;;
18695;SDS011;22617;43.690;27.956;2023-10-13T02:13:30;4.33;;;1.80;;
18695;SDS011;22617;43.690;27.956;2023-10-13T02:18:34;5.40;;;1.77;;
18695;SDS011;22617;43.690;27.956;2023-10-13T02:23:44;3.87;;;1.60;;
18695;SDS011;22617;43.690;27.956;2023-10-13T02:29:06;3.43;;;2.00;;
18695;SDS011;22617;43.690;27.956;2023-10-13T02:34:11;3.13;;;1.80;;
18695;SDS011;22617;43.690;27.956;2023-10-13T02:39:16;2.73;;;1.60;;
18695;SDS011;22617;43.690;27.956;2023-10-13T02:44:28;2.50;;;1.70;;
18695;SDS011;22617;43.690;27.956;2023-10-13T02:49:36;4.27;;;1.93;;
18695;SDS011;22617;43.690;27.956;2023-10-13T02:54:45;3.93;;;1.80;;
18695;SDS011;22617;43.690;27.956;2023-10-13T02:59:56;4.17;;;1.80;;
18695;SDS011;22617;43.690;27.956;2023-10-13T03:05:15;6.20;;;2.07;;
18695;SDS011;22617;43.690;27.956;2023-10-13T03:10:23;4.30;;;1.90;;
18695;SDS011;22617;43.690;27.956;2023-10-13T03:15:37;3.57;;;1.90;;
18695;SDS011;22617;43.690;27.956;2023-10-13T03:20:41;4.83;;;1.80;;
18695;SDS011;22617;43.690;27.956;2023-10-13T03:25:45;3.77;;;2.07;;
18695;SDS011;22617;43.690;27.956;2023-10-13T03:30:58;5.10;;;1.97;;
18695;SDS011;22617;43.690;27.956;2023-10-13T03:36:03;4.97;;;2.00;;
18695;SDS011;22617;43.690;27.956;2023-10-13T03:41:08;5.70;;;2.40;;
18695;SDS011;22617;43.690;27.956;2023-10-13T03:46:24;4.23;;;2.00;;
18695;SDS011;22617;43.690;27.956;2023-10-13T03:51:29;3.90;;;2.23;;
18695;SDS011;22617;43.690;27.956;2023-10-13T03:56:34;3.80;;;2.17;;
18695;SDS011;22617;43.690;27.956;2023-10-13T04:01:56;4.07;;;2.50;;
18695;SDS011;22617;43.690;27.956;2023-10-13T04:07:07;4.33;;;2.30;;
18695;SDS011;22617;43.690;27.956;2023-10-13T04:12:39;10.80;;;2.57;;
18695;SDS011;22617;43.690;27.956;2023-10-13T04:18:02;7.77;;;2.57;;
18695;SDS011;22617;43.690;27.956;2023-10-13T04:23:20;33.17;;;12.27;;
18695;SDS011;22617;43.690;27.956;2023-10-13T04:28:28;37.67;;;17.10;;
18695;SDS011;22617;43.690;27.956;2023-10-13T04:33:57;32.37;;;11.40;;
18695;SDS011;22617;43.690;27.956;2023-10-13T04:39:04;18.70;;;6.80;;
18695;SDS011;22617;43.690;27.956;2023-10-13T04:44:19;30.00;;;11.53;;
18695;SDS011;22617;43.690;27.956;2023-10-13T04:49:43;47.83;;;18.20;;
18695;SDS011;22617;43.690;27.956;2023-10-13T04:54:57;33.33;;;9.20;;
18695;SDS011;22617;43.690;27.956;2023-10-13T05:00:13;29.03;;;6.90;;
18695;SDS011;22617;43.690;27.956;2023-10-13T05:05:47;51.00;;;13.20;;
18695;SDS011;22617;43.690;27.956;2023-10-13T05:11:06;34.67;;;9.93;;
18695;SDS011;22617;43.690;27.956;2023-10-13T05:16:28;33.67;;;7.50;;
18695;SDS011;22617;43.690;27.956;2023-10-13T05:21:53;93.23;;;38.47;;
18695;SDS011;22617;43.690;27.956;2023-10-13T05:27:15;55.30;;;22.53;;
18695;SDS011;22617;43.690;27.956;2023-10-13T05:32:39;12.83;;;6.23;;
18695;SDS011;22617;43.690;27.956;2023-10-13T05:38:05;6.53;;;3.60;;
18695;SDS011;22617;43.690;27.956;2023-10-13T05:43:27;5.97;;;2.97;;
18695;SDS011;22617;43.690;27.956;2023-10-13T05:48:49;6.00;;;2.93;;
18695;SDS011;22617;43.690;27.956;2023-10-13T05:54:25;7.20;;;3.00;;
18695;SDS011;22617;43.690;27.956;2023-10-13T05:59:46;8.37;;;3.20;;
18695;SDS011;22617;43.690;27.956;2023-10-13T06:05:08;14.83;;;3.63;;
18695;SDS011;22617;43.690;27.956;2023-10-13T06:10:33;10.73;;;5.13;;
18695;SDS011;22617;43.690;27.956;2023-10-13T06:15:56;8.10;;;4.20;;
18695;SDS011;22617;43.690;27.956;2023-10-13T06:21:31;15.83;;;5.27;;
18695;SDS011;22617;43.690;27.956;2023-10-13T06:26:55;11.60;;;4.77;;
18695;SDS011;22617;43.690;27.956;2023-10-13T06:32:16;8.93;;;4.27;;
18695;SDS011;22617;43.690;27.956;2023-10-13T06:37:23;8.67;;;3.77;;
18695;SDS011;22617;43.690;27.956;2023-10-13T06:42:32;9.57;;;4.30;;
18695;SDS011;22617;43.690;27.956;2023-10-13T06:47:39;7.33;;;3.70;;
18695;SDS011;22617;43.690;27.956;2023-10-13T06:52:53;5.90;;;3.30;;
18695;SDS011;22617;43.690;27.956;2023-10-13T06:58:00;8.87;;;3.73;;
18695;SDS011;22617;43.690;27.956;2023-10-13T07:03:04;8.80;;;2.97;;
18695;SDS011;22617;43.690;27.956;2023-10-13T07:08:10;9.48;;;2.97;;
18695;SDS011;22617;43.690;27.956;2023-10-13T07:13:17;7.93;;;3.00;;
18695;SDS011;22617;43.690;27.956;2023-10-13T07:18:24;8.13;;;2.70;;
18695;SDS011;22617;43.690;27.956;2023-10-13T07:23:28;6.88;;;2.80;;
18695;SDS011;22617;43.690;27.956;2023-10-13T07:28:34;9.77;;;3.27;;
18695;SDS011;22617;43.690;27.956;2023-10-13T07:33:45;9.07;;;3.40;;
18695;SDS011;22617;43.690;27.956;2023-10-13T07:38:51;13.98;;;3.95;;
18695;SDS011;22617;43.690;27.956;2023-10-13T07:44:25;9.75;;;3.72;;
18695;SDS011;22617;43.690;27.956;2023-10-13T07:49:35;9.27;;;3.08;;
18695;SDS011;22617;43.690;27.956;2023-10-13T07:54:43;7.88;;;3.53;;
18695;SDS011;22617;43.690;27.956;2023-10-13T07:59:55;14.55;;;3.85;;
18695;SDS011;22617;43.690;27.956;2023-10-13T08:05:13;8.90;;;3.53;;
18695;SDS011;22617;43.690;27.956;2023-10-13T08:10:26;9.25;;;3.30;;
18695;SDS011;22617;43.690;27.956;2023-10-13T08:15:35;10.68;;;3.50;;
18695;SDS011;22617;43.690;27.956;2023-10-13T08:20:44;9.85;;;3.38;;
18695;SDS011;22617;43.690;27.956;2023-10-13T08:25:54;9.05;;;3.55;;
18695;SDS011;22617;43.690;27.956;2023-10-13T08:31:25;13.43;;;3.55;;
18695;SDS011;22617;43.690;27.956;2023-10-13T08:36:34;8.35;;;3.10;;
18695;SDS011;22617;43.690;27.956;2023-10-13T08:41:41;8.43;;;3.85;;
18695;SDS011;22617;43.690;27.956;2023-10-13T08:47:15;10.88;;;3.97;;
18695;SDS011;22617;43.690;27.956;2023-10-13T08:52:39;17.40;;;6.90;;
18695;SDS011;22617;43.690;27.956;2023-10-13T08:57:56;11.40;;;5.38;;
18695;SDS011;22617;43.690;27.956;2023-10-13T09:03:18;8.68;;;4.20;;
18695;SDS011;22617;43.690;27.956;2023-10-13T09:08:46;9.35;;;4.70;;
18695;SDS011;22617;43.690;27.956;2023-10-13T09:14:12;8.48;;;3.88;;
18695;SDS011;22617;43.690;27.956;2023-10-13T09:19:46;9.95;;;4.53;;
18695;SDS011;22617;43.690;27.956;2023-10-13T09:24:52;8.50;;;4.63;;
18695;SDS011;22617;43.690;27.956;2023-10-13T09:30:05;11.90;;;3.90;;
18695;SDS011;22617;43.690;27.956;2023-10-13T09:35:25;6.05;;;4.05;;
18695;SDS011;22617;43.690;27.956;2023-10-13T09:40:35;10.98;;;4.43;;
18695;SDS011;22617;43.690;27.956;2023-10-13T09:45:41;10.00;;;3.80;;
18695;SDS011;22617;43.690;27.956;2023-10-13T09:50:58;9.90;;;4.30;;
18695;SDS011;22617;43.690;27.956;2023-10-13T09:56:05;8.50;;;4.30;;
18695;SDS011;22617;43.690;27.956;2023-10-13T10:01:17;8.15;;;3.92;;
18695;SDS011;22617;43.690;27.956;2023-10-13T10:06:37;9.25;;;3.88;;
18695;SDS011;22617;43.690;27.956;2023-10-13T10:11:54;7.18;;;4.15;;
18695;SDS011;22617;43.690;27.956;2023-10-13T10:17:10;9.02;;;4.32;;
18695;SDS011;22617;43.690;27.956;2023-10-13T10:22:28;9.48;;;4.05;;
18695;SDS011;22617;43.690;27.956;2023-10-13T10:27:36;18.67;;;4.85;;
18695;SDS011;22617;43.690;27.956;2023-10-13T10:32:39;8.18;;;4.50;;
18695;SDS011;22617;43.690;27.956;2023-10-13T10:37:52;7.95;;;4.57;;
18695;SDS011;22617;43.690;27.956;2023-10-13T10:43:05;8.20;;;4.25;;
18695;SDS011;22617;43.690;27.956;2023-10-13T10:48:31;9.93;;;4.47;;
18695;SDS011;22617;43.690;27.956;2023-10-13T10:53:38;21.55;;;5.85;;
18695;SDS011;22617;43.690;27.956;2023-10-13T10:58:46;8.43;;;5.10;;
18695;SDS011;22617;43.690;27.956;2023-10-13T11:03:55;17.73;;;5.53;;
18695;SDS011;22617;43.690;27.956;2023-10-13T11:09:04;10.45;;;5.63;;
18695;SDS011;22617;43.690;27.956;2023-10-13T11:14:21;11.20;;;5.68;;
18695;SDS011;22617;43.690;27.956;2023-10-13T11:19:34;9.63;;;4.28;;
18695;SDS011;22617;43.690;27.956;2023-10-13T11:24:43;17.60;;;4.50;;
18695;SDS011;22617;43.690;27.956;2023-10-13T11:29:47;10.48;;;4.72;;
18695;SDS011;22617;43.690;27.956;2023-10-13T11:34:55;10.55;;;5.63;;
18695;SDS011;22617;43.690;27.956;2023-10-13T11:40:04;16.00;;;5.43;;
18695;SDS011;22617;43.690;27.956;2023-10-13T11:45:19;12.57;;;6.03;;
18695;SDS011;22617;43.690;27.956;2023-10-13T11:50:34;11.40;;;6.38;;
18695;SDS011;22617;43.690;27.956;2023-10-13T11:55:43;14.00;;;6.68;;
18695;SDS011;22617;43.690;27.956;2023-10-13T12:00:54;12.73;;;6.95;;
18695;SDS011;22617;43.690;27.956;2023-10-13T12:06:24;20.52;;;7.40;;
18695;SDS011;22617;43.690;27.956;2023-10-13T12:11:45;18.45;;;7.35;;
18695;SDS011;22617;43.690;27.956;2023-10-13T12:16:54;20.25;;;7.38;;
18695;SDS011;22617;43.690;27.956;2023-10-13T12:22:06;14.77;;;7.22;;
18695;SDS011;22617;43.690;27.956;2023-10-13T12:27:13;14.73;;;7.35;;
18695;SDS011;22617;43.690;27.956;2023-10-13T12:32:25;17.40;;;6.97;;
18695;SDS011;22617;43.690;27.956;2023-10-13T12:37:33;17.75;;;6.93;;
18695;SDS011;22617;43.690;27.956;2023-10-13T12:42:54;14.43;;;6.88;;
18695;SDS011;22617;43.690;27.956;2023-10-13T12:48:18;18.55;;;7.53;;
18695;SDS011;22617;43.690;27.956;2023-10-13T12:53:39;21.60;;;7.32;;
18695;SDS011;22617;43.690;27.956;2023-10-13T12:58:45;14.45;;;6.55;;
18695;SDS011;22617;43.690;27.956;2023-10-13T13:03:54;15.63;;;6.78;;
18695;SDS011;22617;43.690;27.956;2023-10-13T13:08:58;22.73;;;10.48;;
18695;SDS011;22617;43.690;27.956;2023-10-13T13:14:05;15.25;;;7.55;;
18695;SDS011;22617;43.690;27.956;2023-10-13T13:19:11;16.33;;;6.88;;
18695;SDS011;22617;43.690;27.956;2023-10-13T13:24:17;18.70;;;5.55;;
18695;SDS011;22617;43.690;27.956;2023-10-13T13:29:22;17.45;;;5.38;;
18695;SDS011;22617;43.690;27.956;2023-10-13T13:34:27;13.88;;;6.10;;
18695;SDS011;22617;43.690;27.956;2023-10-13T13:39:31;17.00;;;5.25;;
18695;SDS011;22617;43.690;27.956;2023-10-13T13:44:36;11.93;;;4.40;;
18695;SDS011;22617;43.690;27.956;2023-10-13T13:49:40;12.85;;;4.93;;
18695;SDS011;22617;43.690;27.956;2023-10-13T13:54:53;8.82;;;4.03;;
18695;SDS011;22617;43.690;27.956;2023-10-13T14:00:00;14.38;;;4.90;;
18695;SDS011;22617;43.690;27.956;2023-10-13T14:05:10;10.82;;;4.63;;
18695;SDS011;22617;43.690;27.956;2023-10-13T14:10:19;7.43;;;4.30;;
18695;SDS011;22617;43.690;27.956;2023-10-13T14:15:38;11.88;;;4.70;;
18695;SDS011;22617;43.690;27.956;2023-10-13T14:20:46;11.43;;;4.57;;
18695;SDS011;22617;43.690;27.956;2023-10-13T14:25:51;12.05;;;4.78;;
18695;SDS011;22617;43.690;27.956;2023-10-13T14:31:05;16.60;;;4.65;;
18695;SDS011;22617;43.690;27.956;2023-10-13T14:36:12;23.00;;;5.75;;
18695;SDS011;22617;43.690;27.956;2023-10-13T14:41:23;6.43;;;3.85;;
18695;SDS011;22617;43.690;27.956;2023-10-13T14:46:42;9.60;;;4.18;;
18695;SDS011;22617;43.690;27.956;2023-10-13T14:51:48;9.00;;;5.10;;
18695;SDS011;22617;43.690;27.956;2023-10-13T14:56:56;11.35;;;4.68;;
18695;SDS011;22617;43.690;27.956;2023-10-13T15:02:04;22.80;;;5.80;;
18695;SDS011;22617;43.690;27.956;2023-10-13T15:07:43;10.30;;;4.15;;
18695;SDS011;22617;43.690;27.956;2023-10-13T15:12:58;16.77;;;4.65;;
18695;SDS011;22617;43.690;27.956;2023-10-13T15:24:13;13.43;;;4.75;;
18695;SDS011;22617;43.690;27.956;2023-10-13T15:29:34;7.80;;;3.80;;
18695;SDS011;22617;43.690;27.956;2023-10-13T15:34:40;13.85;;;4.28;;
18695;SDS011;22617;43.690;27.956;2023-10-13T15:39:44;8.20;;;4.07;;
18695;SDS011;22617;43.690;27.956;2023-10-13T15:44:49;17.85;;;4.60;;
18695;SDS011;22617;43.690;27.956;2023-10-13T15:50:02;6.50;;;4.20;;
18695;SDS011;22617;43.690;27.956;2023-10-13T15:55:09;8.48;;;4.20;;
18695;SDS011;22617;43.690;27.956;2023-10-13T16:00:15;7.45;;;4.00;;
18695;SDS011;22617;43.690;27.956;2023-10-13T16:05:30;10.27;;;4.03;;
18695;SDS011;22617;43.690;27.956;2023-10-13T16:10:37;13.40;;;5.15;;
18695;SDS011;22617;43.690;27.956;2023-10-13T16:15:41;18.00;;;4.40;;
18695;SDS011;22617;43.690;27.956;2023-10-13T16:20:47;8.38;;;3.70;;
18695;SDS011;22617;43.690;27.956;2023-10-13T16:25:52;10.30;;;4.38;;
18695;SDS011;22617;43.690;27.956;2023-10-13T16:30:58;9.07;;;3.67;;
18695;SDS011;22617;43.690;27.956;2023-10-13T16:36:04;11.38;;;4.28;;
18695;SDS011;22617;43.690;27.956;2023-10-13T16:41:10;11.70;;;4.32;;
18695;SDS011;22617;43.690;27.956;2023-10-13T16:46:14;12.98;;;4.78;;
18695;SDS011;22617;43.690;27.956;2023-10-13T16:51:20;10.20;;;4.78;;
18695;SDS011;22617;43.690;27.956;2023-10-13T16:56:24;15.98;;;5.20;;
18695;SDS011;22617;43.690;27.956;2023-10-13T17:01:30;12.63;;;5.25;;
18695;SDS011;22617;43.690;27.956;2023-10-13T17:06:35;10.25;;;5.25;;
18695;SDS011;22617;43.690;27.956;2023-10-13T17:11:39;15.20;;;4.50;;
18695;SDS011;22617;43.690;27.956;2023-10-13T17:16:45;11.38;;;5.10;;
18695;SDS011;22617;43.690;27.956;2023-10-13T17:21:51;15.60;;;5.80;;
18695;SDS011;22617;43.690;27.956;2023-10-13T17:26:54;42.33;;;6.67;;
18695;SDS011;22617;43.690;27.956;2023-10-13T17:31:58;37.88;;;7.80;;
18695;SDS011;22617;43.690;27.956;2023-10-13T17:37:06;22.20;;;5.53;;
18695;SDS011;22617;43.690;27.956;2023-10-13T17:42:11;30.27;;;6.70;;
18695;SDS011;22617;43.690;27.956;2023-10-13T17:47:16;30.70;;;7.23;;
18695;SDS011;22617;43.690;27.956;2023-10-13T17:52:23;31.43;;;8.53;;
18695;SDS011;22617;43.690;27.956;2023-10-13T17:57:28;28.60;;;7.63;;
18695;SDS011;22617;43.690;27.956;2023-10-13T18:02:32;30.23;;;9.57;;
18695;SDS011;22617;43.690;27.956;2023-10-13T18:07:37;19.37;;;8.60;;
18695;SDS011;22617;43.690;27.956;2023-10-13T18:12:41;26.17;;;7.97;;
18695;SDS011;22617;43.690;27.956;2023-10-13T18:17:46;20.47;;;6.60;;
18695;SDS011;22617;43.690;27.956;2023-10-13T18:22:51;22.00;;;7.40;;
18695;SDS011;22617;43.690;27.956;2023-10-13T18:27:57;25.33;;;7.87;;
18695;SDS011;22617;43.690;27.956;2023-10-13T18:33:13;18.33;;;6.87;;
18695;SDS011;22617;43.690;27.956;2023-10-13T18:38:18;19.00;;;6.30;;
18695;SDS011;22617;43.690;27.956;2023-10-13T18:43:25;16.53;;;6.20;;
18695;SDS011;22617;43.690;27.956;2023-10-13T18:48:30;15.80;;;5.90;;
18695;SDS011;22617;43.690;27.956;2023-10-13T18:53:38;17.37;;;6.77;;
18695;SDS011;22617;43.690;27.956;2023-10-13T18:58:43;18.63;;;6.77;;
18695;SDS011;22617;43.690;27.956;2023-10-13T19:03:57;13.83;;;6.13;;
18695;SDS011;22617;43.690;27.956;2023-10-13T19:09:04;16.63;;;6.13;;
18695;SDS011;22617;43.690;27.956;2023-10-13T19:14:09;13.97;;;6.83;;
18695;SDS011;22617;43.690;27.956;2023-10-13T19:19:13;15.47;;;6.90;;
18695;SDS011;22617;43.690;27.956;2023-10-13T19:24:18;11.73;;;5.83;;
18695;SDS011;22617;43.690;27.956;2023-10-13T19:29:23;15.97;;;6.10;;
18695;SDS011;22617;43.690;27.956;2023-10-13T19:34:26;12.40;;;6.50;;
18695;SDS011;22617;43.690;27.956;2023-10-13T19:39:31;18.73;;;6.10;;
18695;SDS011;22617;43.690;27.956;2023-10-13T19:44:44;12.83;;;6.10;;
18695;SDS011;22617;43.690;27.956;2023-10-13T19:49:48;17.87;;;5.97;;
18695;SDS011;22617;43.690;27.956;2023-10-13T19:54:53;13.83;;;5.93;;
18695;SDS011;22617;43.690;27.956;2023-10-13T19:59:57;18.70;;;6.50;;
18695;SDS011;22617;43.690;27.956;2023-10-13T20:05:01;14.43;;;5.60;;
18695;SDS011;22617;43.690;27.956;2023-10-13T20:10:08;14.17;;;4.97;;
18695;SDS011;22617;43.690;27.956;2023-10-13T20:15:12;11.57;;;5.27;;
18695;SDS011;22617;43.690;27.956;2023-10-13T20:20:17;9.30;;;5.23;;
18695;SDS011;22617;43.690;27.956;2023-10-13T20:25:22;11.60;;;5.43;;
18695;SDS011;22617;43.690;27.956;2023-10-13T20:30:26;12.60;;;5.20;;
18695;SDS011;22617;43.690;27.956;2023-10-13T20:35:30;12.13;;;5.40;;
18695;SDS011;22617;43.690;27.956;2023-10-13T20:40:35;9.83;;;5.00;;
18695;SDS011;22617;43.690;27.956;2023-10-13T20:45:39;10.43;;;5.00;;
18695;SDS011;22617;43.690;27.956;2023-10-13T20:50:44;17.50;;;4.67;;
18695;SDS011;22617;43.690;27.956;2023-10-13T20:55:58;10.20;;;4.80;;
18695;SDS011;22617;43.690;27.956;2023-10-13T21:01:04;14.90;;;5.20;;
18695;SDS011;22617;43.690;27.956;2023-10-13T21:06:10;12.00;;;5.17;;
18695;SDS011;22617;43.690;27.956;2023-10-13T21:11:15;11.77;;;5.07;;
18695;SDS011;22617;43.690;27.956;2023-10-13T21:16:20;10.27;;;4.40;;
18695;SDS011;22617;43.690;27.956;2023-10-13T21:21:24;9.23;;;4.63;;
18695;SDS011;22617;43.690;27.956;2023-10-13T21:26:29;13.07;;;5.70;;
18695;SDS011;22617;43.690;27.956;2023-10-13T21:31:33;12.03;;;5.20;;
18695;SDS011;22617;43.690;27.956;2023-10-13T21:36:41;13.30;;;5.80;;
18695;SDS011;22617;43.690;27.956;2023-10-13T21:41:46;12.80;;;5.73;;
18695;SDS011;22617;43.690;27.956;2023-10-13T21:46:50;11.17;;;5.17;;
18695;SDS011;22617;43.690;27.956;2023-10-13T21:51:53;8.03;;;4.33;;
18695;SDS011;22617;43.690;27.956;2023-10-13T21:56:58;16.93;;;5.43;;
18695;SDS011;22617;43.690;27.956;2023-10-13T22:02:03;13.30;;;5.20;;
18695;SDS011;22617;43.690;27.956;2023-10-13T22:07:07;12.70;;;5.20;;
18695;SDS011;22617;43.690;27.956;2023-10-13T22:12:11;13.33;;;4.93;;
18695;SDS011;22617;43.690;27.956;2023-10-13T22:17:16;15.30;;;5.33;;
18695;SDS011;22617;43.690;27.956;2023-10-13T22:22:20;10.67;;;4.80;;
18695;SDS011;22617;43.690;27.956;2023-10-13T22:27:25;10.47;;;4.70;;
18695;SDS011;22617;43.690;27.956;2023-10-13T22:32:29;10.47;;;5.10;;
18695;SDS011;22617;43.690;27.956;2023-10-13T22:37:33;9.13;;;4.50;;
18695;SDS011;22617;43.690;27.956;2023-10-13T22:42:38;12.40;;;5.20;;
18695;SDS011;22617;43.690;27.956;2023-10-13T22:47:44;12.03;;;5.00;;
18695;SDS011;22617;43.690;27.956;2023-10-13T22:52:48;12.63;;;4.80;;
18695;SDS011;22617;43.690;27.956;2023-10-13T22:57:54;10.77;;;4.87;;
18695;SDS011;22617;43.690;27.956;2023-10-13T23:02:59;12.47;;;4.77;;
18695;SDS011;22617;43.690;27.956;2023-10-13T23:08:04;10.83;;;5.30;;
18695;SDS011;22617;43.690;27.956;2023-10-13T23:13:23;12.77;;;5.30;;
18695;SDS011;22617;43.690;27.956;2023-10-13T23:18:27;12.50;;;5.20;;
18695;SDS011;22617;43.690;27.956;2023-10-13T23:23:31;12.00;;;4.83;;
18695;SDS011;22617;43.690;27.956;2023-10-13T23:28:36;10.57;;;5.30;;
18695;SDS011;22617;43.690;27.956;2023-10-13T23:33:40;8.43;;;4.83;;
18695;SDS011;22617;43.690;27.956;2023-10-13T23:38:45;8.17;;;4.90;;
18695;SDS011;22617;43.690;27.956;2023-10-13T23:43:55;7.30;;;4.63;;
18695;SDS011;22617;43.690;27.956;2023-10-13T23:49:01;10.97;;;5.17;;
18695;SDS011;22617;43.690;27.956;2023-10-13T23:54:05;11.03;;;5.60;;
18695;SDS011;22617;43.690;27.956;2023-10-13T23:59:21;12.57;;;5.30;;
